Time;durP1;ratioP1;P1;durP2;ratioP2;P2;SDS_P1;SDS_P2;PMS_P1;PMS_P2;Temp;Humidity;BMP_temperature;BMP_pressure;BME280_temperature;BME280_humidity;BME280_pressure;Samples;Min_cycle;Max_cycle;Signal;HPM_P1;HPM_P2
2023/10/05 00:03:50;;;;;;;9.05;1.83;;;;;;;15.48;100.00;102106.03;5055494;28;20037;-47
2023/10/05 00:06:17;;;;;;;6.25;2.33;;;;;;;15.71;100.00;102140.66;5048196;28;20021;-48
2023/10/05 00:08:53;;;;;;;11.82;2.40;;;;;;;15.84;100.00;102171.22;5046379;28;20124;-46
2023/10/05 00:11:23;;;;;;;6.30;1.90;;;;;;;15.65;100.00;102138.19;5054473;28;20029;-48
2023/10/05 00:13:49;;;;;;;4.10;1.95;;;;;;;15.87;100.00;102173.75;5054974;28;20037;-50
2023/10/05 00:16:20;;;;;;;10.90;2.33;;;;;;;15.83;100.00;102163.28;5051303;28;20088;-46
2023/10/05 00:18:46;;;;;;;7.00;2.38;;;;;;;15.71;100.00;102156.59;5051018;28;20061;-50
2023/10/05 00:21:11;;;;;;;6.53;2.47;;;;;;;15.66;100.00;102153.22;5053800;28;20439;-46
2023/10/05 00:23:37;;;;;;;11.20;2.40;;;;;;;15.75;100.00;102166.19;5056438;28;20172;-50
2023/10/05 00:26:03;;;;;;;8.35;2.88;;;;;;;15.77;100.00;102169.66;5051332;28;20044;-49
2023/10/05 00:28:29;;;;;;;8.32;2.30;;;;;;;15.77;100.00;102172.31;5054410;28;20044;-50
2023/10/05 00:30:55;;;;;;;5.70;2.28;;;;;;;15.57;100.00;102126.97;5055192;28;21275;-51
2023/10/05 00:33:20;;;;;;;8.02;2.05;;;;;;;15.79;100.00;102159.00;5055332;28;20118;-49
2023/10/05 00:35:47;;;;;;;10.05;2.92;;;;;;;15.30;100.00;102082.72;5053764;28;20123;-48
2023/10/05 00:38:14;;;;;;;11.25;2.35;;;;;;;15.43;100.00;102095.56;5051411;28;20050;-48
2023/10/05 00:40:51;;;;;;;11.68;2.60;;;;;;;15.83;100.00;102168.59;5053044;28;20542;-49
2023/10/05 00:43:24;;;;;;;9.60;2.13;;;;;;;15.83;100.00;102165.94;5067681;28;20029;-49
2023/10/05 00:45:53;;;;;;;7.65;2.42;;;;;;;15.75;100.00;102169.72;5051382;28;20071;-46
2023/10/05 00:48:36;;;;;;;10.00;2.72;;;;;;;15.73;100.00;102176.00;5054201;28;20519;-48
2023/10/05 00:51:23;;;;;;;6.88;2.65;;;;;;;15.31;100.00;102114.50;5054183;28;20032;-48
2023/10/05 00:53:50;;;;;;;8.45;2.28;;;;;;;15.60;100.00;102175.53;5050425;28;20035;-47
2023/10/05 00:56:16;;;;;;;6.78;2.58;;;;;;;15.29;100.00;102136.72;5053471;28;20037;-47
2023/10/05 00:58:46;;;;;;;7.75;2.22;;;;;;;15.15;100.00;102110.59;5052927;28;20047;-48
2023/10/05 01:01:23;;;;;;;6.55;2.20;;;;;;;15.20;100.00;102116.66;5048435;28;20566;-52
2023/10/05 01:06:47;;;;;;;10.15;2.30;;;;;;;15.53;100.00;102176.63;5053451;28;20410;-48
2023/10/05 01:14:59;;;;;;;6.25;2.05;;;;;;;15.54;100.00;102161.56;5053304;28;20116;-47
2023/10/05 01:17:27;;;;;;;6.65;2.83;;;;;;;15.61;100.00;102176.41;5053618;28;20595;-49
2023/10/05 01:19:58;;;;;;;5.93;1.92;;;;;;;15.52;100.00;102152.81;5052160;28;20143;-47
2023/10/05 01:22:38;;;;;;;11.30;2.55;;;;;;;15.62;100.00;102164.84;5051048;28;20483;-50
2023/10/05 01:25:05;;;;;;;7.50;2.10;;;;;;;15.65;100.00;102172.72;5052420;28;20055;-46
2023/10/05 01:27:31;;;;;;;5.85;1.95;;;;;;;15.22;100.00;102098.88;5056860;28;20036;-47
2023/10/05 01:29:57;;;;;;;7.28;2.22;;;;;;;15.46;100.00;102143.22;5049891;28;20037;-48
2023/10/05 01:32:23;;;;;;;6.68;2.30;;;;;;;15.27;100.00;102104.91;5070037;28;20101;-47
2023/10/05 01:34:51;;;;;;;9.57;1.98;;;;;;;15.60;100.00;102162.25;5046615;28;20040;-50
2023/10/05 01:37:22;;;;;;;5.32;2.05;;;;;;;15.11;100.00;102085.09;5051465;28;20099;-46
2023/10/05 01:39:47;;;;;;;;;;;;;;;15.55;100.00;102172.16;5050520;28;20056;-49
2023/10/05 01:42:14;;;;;;;6.10;2.20;;;;;;;15.54;100.00;102167.75;5052017;28;20360;-47
2023/10/05 01:44:46;;;;;;;9.18;2.10;;;;;;;15.51;100.00;102177.59;5068627;28;20040;-48
2023/10/05 01:47:14;;;;;;;5.65;2.67;;;;;;;15.51;100.00;102180.25;5048920;28;20227;-47
2023/10/05 01:49:40;;;;;;;8.82;2.38;;;;;;;15.21;100.00;102113.06;5070458;28;20502;-50
2023/10/05 01:52:06;;;;;;;5.93;2.47;;;;;;;15.58;100.00;102156.13;5061659;28;20048;-45
2023/10/05 01:54:34;;;;;;;7.47;2.13;;;;;;;15.38;100.00;102125.81;5051775;28;20407;-47
2023/10/05 01:57:02;;;;;;;7.95;2.05;;;;;;;15.65;100.00;102173.59;5047007;28;20551;-45
2023/10/05 01:59:28;;;;;;;8.30;2.05;;;;;;;15.69;100.00;102185.84;5046720;28;20040;-48
2023/10/05 02:01:54;;;;;;;8.90;2.25;;;;;;;15.41;100.00;102109.78;5052640;28;20025;-45
2023/10/05 02:04:22;;;;;;;7.10;2.20;;;;;;;15.39;100.00;102111.59;5050764;28;20037;-45
2023/10/05 02:06:49;;;;;;;6.72;2.20;;;;;;;15.64;100.00;102153.25;5046187;28;20499;-48
2023/10/05 02:09:19;;;;;;;10.00;2.67;;;;;;;15.32;100.00;102108.31;5065865;28;20116;-47
2023/10/05 02:11:47;;;;;;;7.97;2.65;;;;;;;15.12;100.00;102060.28;5050295;28;20048;-48
2023/10/05 02:14:12;;;;;;;6.40;1.92;;;;;;;15.70;100.00;102161.03;5049086;28;20029;-46
2023/10/05 02:16:38;;;;;;;9.10;2.47;;;;;;;15.32;100.00;102095.03;5051471;28;20116;-48
2023/10/05 02:19:06;;;;;;;6.57;2.38;;;;;;;15.57;100.00;102138.47;5052454;28;20392;-48
2023/10/05 02:21:42;;;;;;;6.75;2.20;;;;;;;15.45;100.00;102127.34;5054309;28;20051;-48
2023/10/05 02:24:12;;;;;;;7.88;3.15;;;;;;;15.51;100.00;102151.06;5057911;28;20466;-46
2023/10/05 02:26:45;;;;;;;9.18;2.95;;;;;;;15.50;100.00;102149.34;5056662;28;20044;-50
2023/10/05 02:29:16;;;;;;;5.90;2.17;;;;;;;15.49;100.00;102147.59;5054616;28;20037;-49
2023/10/05 02:31:56;;;;;;;8.00;2.28;;;;;;;15.48;100.00;102145.84;5054577;28;20040;-49
2023/10/05 02:34:22;;;;;;;8.85;3.00;;;;;;;15.08;100.00;102091.38;5054828;28;20047;-49
2023/10/05 02:36:47;;;;;;;10.55;2.63;;;;;;;14.99;100.00;102089.00;5052901;28;20041;-44
2023/10/05 02:39:14;;;;;;;5.35;2.17;;;;;;;15.22;100.00;102133.38;5051396;28;20087;-49
2023/10/05 02:41:39;;;;;;;8.68;2.80;;;;;;;15.13;100.00;102117.75;5054530;28;20118;-48
2023/10/05 02:44:16;;;;;;;6.57;2.38;;;;;;;14.79;100.00;102088.75;5054688;28;20036;-49
2023/10/05 02:46:42;;;;;;;11.90;3.47;;;;;;;14.67;100.00;102078.50;5055518;28;20141;-44
2023/10/05 02:49:09;;;;;;;7.30;2.08;;;;;;;14.98;100.00;102140.28;5054017;28;20127;-50
2023/10/05 02:51:35;;;;;;;9.55;2.67;;;;;;;14.97;100.00;102143.84;5056252;28;20033;-48
2023/10/05 02:54:06;;;;;;;8.18;2.30;;;;;;;14.54;100.00;102071.81;5071261;28;20052;-47
2023/10/05 02:56:33;;;;;;;8.77;2.95;;;;;;;14.95;100.00;102139.50;5055938;28;21261;-47
2023/10/05 02:59:03;;;;;;;7.25;2.80;;;;;;;14.92;100.00;102136.94;5052172;28;20044;-47
2023/10/05 03:01:32;;;;;;;7.68;2.33;;;;;;;14.50;100.00;102073.72;5055405;28;20044;-45
2023/10/05 03:03:58;;;;;;;9.80;2.33;;;;;;;14.79;100.00;102117.03;5052792;28;20479;-47
2023/10/05 03:06:24;;;;;;;9.25;2.70;;;;;;;14.68;100.00;102117.34;5052926;28;20396;-45
2023/10/05 03:08:49;;;;;;;7.00;2.90;;;;;;;14.74;100.00;102132.22;5054232;28;20040;-48
2023/10/05 03:11:18;;;;;;;11.38;3.08;;;;;;;14.32;100.00;102075.97;5052159;28;20495;-47
2023/10/05 03:13:43;;;;;;;13.20;2.75;;;;;;;14.61;100.00;102131.69;5052928;28;20419;-50
2023/10/05 03:16:11;;;;;;;7.80;2.25;;;;;;;14.61;100.00;102127.25;5055274;28;20029;-47
2023/10/05 03:18:43;;;;;;;8.73;3.17;;;;;;;14.49;100.00;102095.81;5052909;28;20086;-45
2023/10/05 03:21:09;;;;;;;8.18;2.90;;;;;;;14.54;100.00;102120.38;5052416;28;20036;-48
2023/10/05 03:23:35;;;;;;;8.52;2.40;;;;;;;14.32;100.00;102087.47;5049548;28;20033;-52
2023/10/05 03:26:00;;;;;;;6.45;2.65;;;;;;;14.42;100.00;102094.22;5049324;28;20048;-51
2023/10/05 03:28:27;;;;;;;12.02;2.90;;;;;;;14.44;100.00;102108.31;5057841;28;20045;-50
2023/10/05 03:30:53;;;;;;;8.80;2.75;;;;;;;14.55;100.00;102134.50;5067891;28;20500;-47
2023/10/05 03:33:23;;;;;;;8.32;2.50;;;;;;;14.12;100.00;102065.06;5054187;28;20045;-51
2023/10/05 03:35:48;;;;;;;8.13;3.03;;;;;;;14.51;100.00;102130.19;5048912;28;20037;-46
2023/10/05 03:38:19;;;;;;;11.15;2.53;;;;;;;14.52;100.00;102127.50;5053199;28;20457;-48
2023/10/05 03:40:44;;;;;;;8.73;2.20;;;;;;;14.50;100.00;102117.88;5053384;28;20428;-49
2023/10/05 03:43:10;;;;;;;17.92;3.67;;;;;;;14.10;100.00;102055.38;5068576;28;20076;-48
2023/10/05 03:45:38;;;;;;;10.73;2.58;;;;;;;14.37;100.00;102119.13;5054641;28;20045;-49
2023/10/05 03:48:05;;;;;;;8.32;2.40;;;;;;;14.32;100.00;102110.41;5054491;28;20119;-49
2023/10/05 03:50:31;;;;;;;8.00;2.63;;;;;;;14.20;100.00;102113.38;5051022;28;20147;-49
2023/10/05 03:52:57;;;;;;;8.38;2.50;;;;;;;14.26;100.00;102118.50;5051210;28;20029;-49
2023/10/05 03:55:24;;;;;;;7.10;2.50;;;;;;;13.85;100.00;102051.66;5048725;28;20041;-49
2023/10/05 03:57:50;;;;;;;8.07;2.47;;;;;;;14.31;100.00;102128.06;5052048;28;20124;-45
2023/10/05 04:02:47;;;;;;;5.20;2.00;;;;;;;14.35;100.00;102119.16;5055244;28;20036;-48
2023/10/05 04:05:12;;;;;;;7.93;2.95;;;;;;;13.97;100.00;102055.75;5056045;28;20442;-50
2023/10/05 04:11:13;;;;;;;11.68;3.15;;;;;;;14.10;100.00;102052.72;5043939;28;20523;-47
2023/10/05 04:13:38;;;;;;;9.07;2.22;;;;;;;14.44;100.00;102107.44;5048169;28;20041;-46
2023/10/05 04:16:08;;;;;;;12.55;2.65;;;;;;;14.08;100.00;102051.03;5052939;28;20449;-48
2023/10/05 04:18:33;;;;;;;11.05;3.05;;;;;;;14.10;100.00;102073.91;5052136;28;20028;-48
2023/10/05 04:20:58;;;;;;;10.05;2.65;;;;;;;13.97;100.00;102058.41;5049182;28;20484;-47
2023/10/05 04:23:28;;;;;;;8.40;2.10;;;;;;;14.32;100.00;102123.66;5032100;28;20151;-46
2023/10/05 04:25:54;;;;;;;7.95;2.83;;;;;;;13.87;100.00;102039.25;5054003;28;20105;-48
2023/10/05 04:28:39;;;;;;;4.78;2.15;;;;;;;13.77;100.00;102035.13;5051282;28;20389;-47
2023/10/05 04:31:11;;;;;;;5.78;2.17;;;;;;;13.90;100.00;102048.88;5045428;28;20044;-47
2023/10/05 04:33:39;;;;;;;7.90;2.10;;;;;;;13.92;100.00;102055.03;5050276;28;20123;-45
2023/10/05 04:36:05;;;;;;;10.60;2.65;;;;;;;13.90;100.00;102047.09;5050501;28;20094;-49
2023/10/05 04:38:31;;;;;;;7.82;2.08;;;;;;;13.92;100.00;102042.63;5053056;28;20045;-49
2023/10/05 04:40:58;;;;;;;12.05;2.20;;;;;;;14.34;100.00;102116.53;5049789;28;20057;-47
2023/10/05 04:43:23;;;;;;;5.85;1.85;;;;;;;14.18;100.00;102089.59;5052475;28;20106;-48
2023/10/05 04:45:51;;;;;;;6.63;2.15;;;;;;;14.35;100.00;102115.66;5035833;28;20041;-50
2023/10/05 04:48:18;;;;;;;5.10;2.25;;;;;;;14.02;100.00;102064.44;5051133;28;20079;-48
2023/10/05 04:50:43;;;;;;;6.20;2.50;;;;;;;14.32;100.00;102121.00;5051613;28;20041;-47
2023/10/05 04:53:09;;;;;;;6.75;2.00;;;;;;;14.26;100.00;102108.78;5057516;28;20086;-49
2023/10/05 04:55:42;;;;;;;9.80;2.28;;;;;;;13.91;100.00;102055.94;5050629;28;20097;-47
2023/10/05 05:00:53;;;;;;;9.00;2.40;;;;;;;14.28;100.00;102114.91;5053887;28;20041;-49
2023/10/05 05:04:13;;;;;;;8.17;2.70;;;;;;;13.89;100.00;102066.53;5056808;28;20036;-46
2023/10/05 05:06:13;;;;;;;9.63;3.08;;;;;;;14.03;100.00;102082.06;5059130;28;20045;-50
2023/10/05 05:08:38;;;;;;;12.52;2.95;;;;;;;13.72;100.00;102031.72;5047256;28;20056;-47
2023/10/05 05:11:11;;;;;;;7.93;2.08;;;;;;;14.25;100.00;102128.22;5053644;28;20499;-48
2023/10/05 05:13:38;;;;;;;11.07;2.38;;;;;;;13.92;100.00;102060.31;5049125;28;20037;-45
2023/10/05 05:16:05;;;;;;;9.40;2.85;;;;;;;14.29;100.00;102135.19;5043632;28;20029;-47
2023/10/05 05:18:31;;;;;;;6.00;2.05;;;;;;;14.19;100.00;102114.28;5052481;28;20048;-46
2023/10/05 05:20:56;;;;;;;6.82;2.47;;;;;;;14.21;100.00;102120.44;5050589;28;20660;-48
2023/10/05 05:23:22;;;;;;;7.93;2.50;;;;;;;14.25;100.00;102133.53;5051434;28;20032;-51
2023/10/05 05:25:51;;;;;;;10.85;2.80;;;;;;;14.26;100.00;102134.41;5048213;28;20040;-52
2023/10/05 05:28:17;;;;;;;6.20;1.75;;;;;;;14.22;100.00;102140.69;5047915;28;20041;-48
2023/10/05 05:30:42;;;;;;;10.48;2.25;;;;;;;14.02;100.00;102120.03;5050311;28;20044;-48
2023/10/05 05:33:10;;;;;;;6.90;2.28;;;;;;;14.21;100.00;102144.25;5051108;28;20124;-53
2023/10/05 05:35:37;;;;;;;11.68;3.25;;;;;;;13.89;100.00;102076.28;5044721;28;20479;-49
2023/10/05 05:38:02;;;;;;;11.40;2.80;;;;;;;14.23;100.00;102134.50;5068281;28;20060;-49
2023/10/05 05:40:29;;;;;;;6.95;2.17;;;;;;;14.14;100.00;102132.97;5054091;28;20045;-47
2023/10/05 05:42:56;;;;;;;8.25;1.98;;;;;;;14.16;100.00;102140.84;5051964;28;20044;-49
2023/10/05 05:45:21;;;;;;;9.20;2.55;;;;;;;14.17;100.00;102143.47;5047856;28;20045;-48
2023/10/05 05:47:47;;;;;;;8.27;1.83;;;;;;;14.16;100.00;102141.72;5046915;28;20037;-48
2023/10/05 05:50:23;;;;;;;8.63;1.95;;;;;;;14.17;100.00;102132.88;5036092;28;20033;-48
2023/10/05 05:52:48;;;;;;;8.25;2.33;;;;;;;13.77;100.00;102080.13;5052486;28;20036;-47
2023/10/05 05:55:20;;;;;;;5.82;2.28;;;;;;;14.17;100.00;102154.06;5079376;28;20037;-47
2023/10/05 05:57:46;;;;;;;8.48;1.95;;;;;;;14.09;100.00;102124.28;5072278;28;20174;-51
2023/10/05 06:00:12;;;;;;;11.45;2.28;;;;;;;13.79;100.00;102069.47;5044276;28;20119;-49
2023/10/05 06:02:41;;;;;;;7.90;2.33;;;;;;;14.18;100.00;102131.09;5067027;28;20711;-46
2023/10/05 06:05:08;;;;;;;9.70;2.58;;;;;;;14.22;100.00;102133.59;5065025;28;20037;-50
2023/10/05 06:07:39;;;;;;;9.05;2.38;;;;;;;14.10;100.00;102091.56;5060324;28;20166;-47
2023/10/05 06:10:12;;;;;;;7.20;2.33;;;;;;;14.08;100.00;102078.38;5055320;28;20041;-48
2023/10/05 06:12:38;;;;;;;8.27;2.05;;;;;;;14.43;100.00;102133.06;5069155;28;20033;-47
2023/10/05 06:15:04;;;;;;;10.20;2.33;;;;;;;14.48;100.00;102138.22;5071295;28;20059;-51
2023/10/05 06:17:29;;;;;;;6.45;2.63;;;;;;;14.30;100.00;102114.88;5045531;28;20064;-46
2023/10/05 06:19:56;;;;;;;9.38;2.45;;;;;;;14.51;100.00;102151.38;5064052;28;20083;-47
2023/10/05 06:22:22;;;;;;;7.80;2.47;;;;;;;14.11;100.00;102090.66;5067074;28;20032;-47
2023/10/05 06:24:47;;;;;;;7.03;2.28;;;;;;;14.49;100.00;102155.88;5058429;28;20442;-47
2023/10/05 06:27:13;;;;;;;11.32;2.35;;;;;;;14.12;100.00;102094.19;5070774;28;20120;-45
2023/10/05 06:29:38;;;;;;;6.78;2.13;;;;;;;14.54;100.00;102159.25;5059884;28;20025;-45
2023/10/05 06:32:08;;;;;;;8.32;2.50;;;;;;;14.12;100.00;102084.47;5063320;28;20048;-49
2023/10/05 06:34:37;;;;;;;9.75;2.47;;;;;;;14.55;100.00;102159.22;5061940;28;20489;-47
2023/10/05 06:37:03;;;;;;;7.38;2.65;;;;;;;14.62;100.00;102162.56;5051870;28;20041;-51
2023/10/05 06:39:30;;;;;;;9.57;2.30;;;;;;;14.59;100.00;102150.25;5044741;28;20051;-48
2023/10/05 06:41:57;;;;;;;5.70;2.60;;;;;;;14.42;100.00;102103.94;5049283;28;20033;-45
2023/10/05 06:44:23;;;;;;;8.07;2.38;;;;;;;14.33;100.00;102109.53;5057487;28;20044;-45
2023/10/05 06:46:48;;;;;;;8.38;2.53;;;;;;;14.41;100.00;102112.84;5040200;28;20129;-46
2023/10/05 06:49:14;;;;;;;8.35;2.60;;;;;;;14.74;100.00;102161.34;5052290;28;20111;-50
2023/10/05 06:51:43;;;;;;;8.20;2.22;;;;;;;14.47;100.00;102115.31;5055262;28;20468;-47
2023/10/05 06:54:09;;;;;;;8.68;2.38;;;;;;;14.55;100.00;102134.50;5052463;28;20037;-47
2023/10/05 06:56:34;;;;;;;7.38;2.58;;;;;;;14.91;100.00;102201.50;5054368;28;20033;-46
2023/10/05 06:58:59;;;;;;;6.45;2.40;;;;;;;14.96;100.00;102195.16;5051920;28;20045;-48
2023/10/05 07:01:25;;;;;;;9.80;2.80;;;;;;;15.01;100.00;102198.53;5059740;28;20036;-50
2023/10/05 07:03:52;;;;;;;8.23;2.53;;;;;;;15.07;100.00;102208.09;5061849;28;20391;-45
2023/10/05 07:06:27;;;;;;;7.03;2.72;;;;;;;15.06;100.00;102198.41;5048633;28;20046;-45
2023/10/05 07:08:53;;;;;;;11.05;2.67;;;;;;;15.17;100.00;102217.53;5051994;28;20048;-48
2023/10/05 07:11:19;;;;;;;11.05;2.92;;;;;;;15.19;100.00;102219.22;5055112;28;20040;-49
2023/10/05 07:13:46;;;;;;;8.55;2.75;;;;;;;15.23;100.00;102225.31;5054514;28;20124;-46
2023/10/05 07:16:12;;;;;;;9.60;3.00;;;;;;;15.22;100.00;102226.22;5056777;28;20158;-48
2023/10/05 07:18:39;;;;;;;10.30;2.72;;;;;;;15.29;100.00;102225.13;5053003;28;20119;-48
2023/10/05 07:21:04;;;;;;;6.95;2.47;;;;;;;15.10;100.00;102185.00;5054828;28;20076;-49
2023/10/05 07:23:31;;;;;;;10.27;2.30;;;;;;;15.45;100.00;102229.03;5052659;28;20464;-49
2023/10/05 07:25:57;;;;;;;7.53;2.88;;;;;;;15.17;100.00;102164.47;5057082;28;20452;-48
2023/10/05 07:28:23;;;;;;;10.32;2.70;;;;;;;15.62;100.00;102245.34;5065109;28;20122;-48
2023/10/05 07:30:48;;;;;;;6.68;2.33;;;;;;;15.32;100.00;102181.72;5063706;28;20049;-49
2023/10/05 07:33:14;;;;;;;11.10;2.35;;;;;;;15.73;100.00;102243.22;5058495;28;20032;-49
2023/10/05 07:35:40;;;;;;;8.65;2.63;;;;;;;15.49;100.00;102184.75;5059435;28;20032;-48
2023/10/05 07:38:06;;;;;;;8.45;2.75;;;;;;;15.84;100.00;102221.66;5057922;28;20388;-48
2023/10/05 07:40:35;;;;;;;11.27;2.60;;;;;;;16.06;100.00;102256.34;5042538;28;20484;-51
2023/10/05 07:43:01;;;;;;;7.18;2.63;;;;;;;16.13;100.00;102248.13;5051911;28;20036;-51
2023/10/05 07:45:26;;;;;;;4.60;2.90;;;;;;;15.89;100.00;102176.34;5069073;28;20044;-48
2023/10/05 07:47:52;;;;;;;7.60;2.40;;;;;;;15.92;100.00;102184.22;5054479;28;20036;-52
2023/10/05 07:50:17;;;;;;;10.98;2.28;;;;;;;16.32;100.00;102227.09;5055235;28;20056;-49
2023/10/05 07:52:49;;;;;;;9.80;2.47;;;;;;;16.17;100.00;102193.13;5059849;28;20051;-49
2023/10/05 07:55:15;;;;;;;6.13;2.40;;;;;;;16.36;100.00;102201.31;5051723;28;20040;-50
2023/10/05 07:57:40;;;;;;;9.95;3.08;;;;;;;16.48;100.00;102211.50;5053595;28;20024;-49
2023/10/05 08:00:11;;;;;;;8.25;2.25;;;;;;;16.38;100.00;102159.59;5063386;28;20064;-52
2023/10/05 08:02:37;;;;;;;6.90;2.55;;;;;;;16.81;100.00;102202.38;5058061;28;20044;-48
2023/10/05 08:05:04;;;;;;;8.98;2.60;;;;;;;17.34;100.00;102267.72;5068028;28;20044;-49
2023/10/05 08:07:29;;;;;;;8.57;2.20;;;;;;;17.26;100.00;102234.34;5058510;28;20115;-51
2023/10/05 08:09:55;;;;;;;10.68;2.42;;;;;;;17.55;100.00;102279.38;5058922;28;20113;-50
2023/10/05 08:12:20;;;;;;;10.63;3.40;;;;;;;17.53;100.00;102280.34;5063939;28;20055;-48
2023/10/05 08:14:46;;;;;;;10.77;2.53;;;;;;;17.54;100.00;102295.41;5049228;28;20029;-50
2023/10/05 08:17:12;;;;;;;7.28;2.45;;;;;;;17.59;100.00;102285.47;5068558;28;20054;-49
2023/10/05 08:19:38;;;;;;;10.52;3.13;;;;;;;17.08;100.00;102225.28;5058387;28;20094;-50
2023/10/05 08:22:03;;;;;;;9.15;2.75;;;;;;;17.49;100.00;102294.69;5062139;28;20057;-47
2023/10/05 08:24:31;;;;;;;10.98;2.70;;;;;;;17.04;100.00;102230.78;5066419;28;20040;-52
2023/10/05 08:26:56;;;;;;;8.13;2.75;;;;;;;17.49;100.00;102313.31;5054898;28;20078;-51
2023/10/05 08:29:22;;;;;;;11.65;2.65;;;;;;;17.50;100.00;102310.63;5058937;28;20115;-48
2023/10/05 08:31:49;;;;;;;10.38;2.30;;;;;;;17.32;100.00;102290.88;5046442;28;20150;-47
2023/10/05 08:34:20;;;;;;;6.15;2.30;;;;;;;17.04;100.00;102252.94;5063623;28;20052;-47
2023/10/05 08:36:45;;;;;;;;;;;;;;;17.29;100.00;102322.94;5056685;28;20044;-52
2023/10/05 08:39:13;;;;;;;7.38;2.30;;;;;;;17.23;100.00;102319.63;5064703;28;19912;-49
2023/10/05 08:41:41;;;;;;;4.95;2.38;;;;;;;17.03;100.00;102316.81;5064459;28;20028;-50
2023/10/05 08:44:11;;;;;;;8.63;2.95;;;;;;;16.92;100.00;102334.94;5053779;28;20458;-50
2023/10/05 08:46:42;;;;;;;8.65;2.55;;;;;;;16.61;100.00;102268.66;5053936;28;20040;-49
2023/10/05 08:49:09;;;;;;;9.52;2.78;;;;;;;16.81;100.00;102322.03;5043975;28;20049;-52
2023/10/05 08:51:36;;;;;;;5.40;2.53;;;;;;;16.83;100.00;102321.06;5068072;28;20403;-52
2023/10/05 08:54:02;;;;;;;7.15;2.45;;;;;;;16.84;100.00;102325.44;5060783;28;20459;-49
2023/10/05 08:56:31;;;;;;;8.95;2.88;;;;;;;16.85;100.00;102340.47;5058525;28;20065;-52
2023/10/05 08:58:59;;;;;;;13.10;2.90;;;;;;;16.90;100.00;102339.47;5067193;28;20032;-48
2023/10/05 09:01:31;;;;;;;12.93;3.00;;;;;;;16.68;100.00;102294.13;5054875;28;20032;-53
2023/10/05 09:04:11;;;;;;;7.40;2.40;;;;;;;16.74;100.00;102292.13;5052939;28;20082;-50
2023/10/05 09:06:55;;;;;;;10.60;2.97;;;;;;;17.13;100.00;102347.50;5039198;28;20044;-50
2023/10/05 09:09:51;;;;;;;8.95;2.75;;;;;;;17.19;100.00;102355.28;5054397;28;20041;-50
2023/10/05 09:12:35;;;;;;;9.00;2.90;;;;;;;17.23;100.00;102355.09;5058210;28;20032;-53
2023/10/05 09:17:54;;;;;;;8.82;3.05;;;;;;;17.26;100.00;102356.75;5055319;28;20121;-49
2023/10/05 09:20:30;;;;;;;9.13;2.67;;;;;;;16.85;100.00;102281.97;5051720;28;20064;-50
2023/10/05 09:22:57;;;;;;;9.00;2.95;;;;;;;17.29;100.00;102356.66;5053088;28;20082;-49
2023/10/05 09:25:31;;;;;;;10.77;3.50;;;;;;;16.96;100.00;102300.19;5066749;28;20119;-49
2023/10/05 09:28:09;;;;;;;7.70;2.20;;;;;;;17.25;100.00;102353.22;5059427;28;20603;-51
2023/10/05 09:30:55;;;;;;;9.25;2.78;;;;;;;16.92;100.00;102295.94;5056253;28;20489;-48
2023/10/05 09:33:26;;;;;;;8.63;2.70;;;;;;;17.23;100.00;102347.09;5042268;28;20037;-50
2023/10/05 09:36:19;;;;;;;7.03;2.85;;;;;;;17.37;100.00;102376.75;5049870;28;20032;-52
2023/10/05 09:38:43;;;;;;;9.65;2.50;;;;;;;17.43;100.00;102362.34;5054096;28;20037;-50
2023/10/05 09:41:09;;;;;;;10.88;3.10;;;;;;;17.46;100.00;102367.56;5048085;28;20151;-50
2023/10/05 09:43:38;;;;;;;9.48;3.08;;;;;;;17.19;100.00;102302.06;5047704;28;20049;-47
2023/10/05 09:46:09;;;;;;;11.60;3.30;;;;;;;17.58;100.00;102366.25;5047444;28;20187;-48
2023/10/05 09:48:37;;;;;;;;;;;;;;;17.69;100.00;102370.25;5065779;28;20093;-50
2023/10/05 09:51:10;;;;;;;13.35;3.00;;;;;;;17.81;100.00;102375.13;5071403;28;19964;-50
2023/10/05 09:53:38;;;;;;;11.20;2.90;;;;;;;17.63;100.00;102319.91;5071245;28;20031;-53
2023/10/05 09:56:03;;;;;;;12.77;2.55;;;;;;;18.04;100.00;102373.41;5087072;28;20223;-53
2023/10/05 09:58:30;;;;;;;12.70;2.70;;;;;;;18.04;100.00;102374.22;5085359;28;20372;-49
2023/10/05 10:00:56;;;;;;;11.52;2.60;;;;;;;17.84;100.00;102326.19;5071594;28;20036;-50
2023/10/05 10:03:21;;;;;;;11.90;3.28;;;;;;;18.17;100.00;102377.28;5070846;28;20551;-53
2023/10/05 10:05:55;;;;;;;7.70;2.60;;;;;;;18.09;100.00;102384.72;5071547;28;20036;-47
2023/10/05 10:08:21;;;;;;;7.72;2.58;;;;;;;18.21;100.00;102386.91;5086588;28;20162;-49
2023/10/05 10:11:03;;;;;;;6.22;2.75;;;;;;;17.95;100.00;102321.31;5070851;28;20448;-49
2023/10/05 10:13:37;;;;;;;9.18;2.63;;;;;;;18.20;100.00;102319.41;5071744;28;20438;-49
2023/10/05 10:16:15;;;;;;;11.15;2.65;;;;;;;18.50;100.00;102342.16;5071497;28;20070;-50
2023/10/05 10:18:43;;;;;;;5.95;2.65;;;;;;;18.87;100.00;102391.31;5070707;28;20060;-52
2023/10/05 10:21:20;;;;;;;10.38;2.70;;;;;;;18.46;100.00;102315.66;5068887;28;20094;-49
2023/10/05 10:23:50;;;;;;;7.78;2.55;;;;;;;18.65;100.00;102385.16;5071052;28;20025;-47
2023/10/05 10:26:20;;;;;;;6.85;2.22;;;;;;;18.57;100.00;102384.56;5071149;28;20028;-46
2023/10/05 10:28:56;;;;;;;10.53;2.80;;;;;;;18.44;100.00;102378.88;5071213;28;20398;-51
2023/10/05 10:31:33;;;;;;;9.98;2.90;;;;;;;18.21;100.00;102331.81;5071359;28;20278;-49
2023/10/05 10:34:28;;;;;;;9.43;2.05;;;;;;;18.48;100.00;102328.03;5071296;28;20060;-49
2023/10/05 10:36:57;;;;;;;14.65;3.38;;;;;;;19.38;100.00;102389.03;5071176;28;20032;-50
2023/10/05 10:39:24;;;;;;;5.07;1.90;;;;;;;19.90;100.00;102386.72;5070246;28;20046;-47
2023/10/05 10:44:29;;;;;;;8.25;2.72;;;;;;;20.19;100.00;102348.78;5074838;28;20510;-49
2023/10/05 10:47:09;;;;;;;9.40;2.70;;;;;;;20.23;100.00;102336.97;5073453;28;20032;-51
2023/10/05 10:49:39;;;;;;;6.35;2.58;;;;;;;20.10;100.00;102339.38;5074503;28;20399;-49
2023/10/05 10:52:09;;;;;;;10.02;2.58;;;;;;;20.05;100.00;102333.38;5074859;28;20111;-48
2023/10/05 10:54:37;;;;;;;7.13;2.42;;;;;;;20.32;100.00;102400.72;5073436;28;20394;-51
2023/10/05 10:57:06;;;;;;;8.40;2.22;;;;;;;20.14;100.00;102389.06;5089789;28;20025;-51
2023/10/05 10:59:41;;;;;;;6.93;2.65;;;;;;;19.71;100.00;102325.25;5074579;28;20045;-50
2023/10/05 11:02:11;;;;;;;4.90;2.00;;;;;;;19.97;100.00;102386.34;5073806;28;20064;-55
2023/10/05 11:04:39;;;;;;;7.25;2.63;;;;;;;20.00;100.00;102412.06;5073719;28;20552;-53
2023/10/05 11:07:07;;;;;;;8.13;2.15;;;;;;;19.88;100.00;102397.47;5073362;28;20032;-49
2023/10/05 11:09:37;;;;;;;9.63;2.65;;;;;;;19.86;100.00;102398.47;5074177;28;20075;-47
2023/10/05 11:12:10;;;;;;;4.15;2.05;;;;;;;19.95;100.00;102408.75;5089485;28;20055;-50
2023/10/05 11:14:43;;;;;;;5.60;1.98;;;;;;;20.10;100.00;102398.19;5074145;28;20029;-48
2023/10/05 11:17:30;;;;;;;7.20;1.95;;;;;;;20.26;100.00;102398.34;5074145;28;20036;-50
2023/10/05 11:19:57;;;;;;;12.63;2.90;;;;;;;20.40;100.00;102354.91;5073798;28;20526;-49
2023/10/05 11:22:23;;;;;;;6.68;2.65;;;;;;;21.24;100.00;102395.22;5073931;28;20068;-50
2023/10/05 11:25:14;;;;;;;7.15;2.05;;;;;;;22.22;100.00;102399.66;5072665;28;20501;-50
2023/10/05 11:27:41;;;;;;;5.65;2.13;;;;;;;23.20;100.00;102426.13;5074409;28;20082;-49
2023/10/05 11:30:08;;;;;;;7.40;2.30;;;;;;;23.08;100.00;102378.50;5089856;28;20033;-50
2023/10/05 11:32:33;;;;;;;6.82;2.55;;;;;;;23.74;100.00;102416.50;5089685;28;20040;-49
2023/10/05 11:35:04;;;;;;;8.25;3.13;;;;;;;24.70;100.00;102364.50;5074007;28;20116;-51
2023/10/05 11:37:32;;;;;;;8.23;3.05;;;;;;;25.50;100.00;102378.69;5089350;28;20154;-46
2023/10/05 11:40:00;;;;;;;6.30;2.40;;;;;;;25.93;100.00;102395.34;5073777;28;20040;-52
2023/10/05 11:42:27;;;;;;;8.00;2.70;;;;;;;25.99;100.00;102437.22;5072619;28;20460;-49
2023/10/05 11:44:59;;;;;;;8.50;2.78;;;;;;;24.52;100.00;102385.44;5073965;28;20483;-47
2023/10/05 11:47:32;;;;;;;9.48;3.20;;;;;;;23.91;100.00;102432.44;5073802;28;20120;-50
2023/10/05 11:50:05;;;;;;;8.70;2.95;;;;;;;22.77;100.00;102394.69;5074241;28;20060;-47